createdAt,value
2019-02-23T00:02:07.085Z,64.80
2019-02-23T00:04:35.308Z,65.30
2019-02-23T00:07:03.649Z,64.40
2019-02-23T00:09:31.904Z,61.90
2019-02-23T00:12:00.165Z,65.10
2019-02-23T00:14:28.418Z,67.20
2019-02-23T00:16:56.730Z,64.20
2019-02-23T00:19:25.330Z,65.90
2019-02-23T00:21:53.686Z,65.50
2019-02-23T00:24:21.929Z,65.90
2019-02-23T00:26:50.163Z,65.40
2019-02-23T00:29:18.406Z,64.80
2019-02-23T00:31:46.657Z,63.90
2019-02-23T00:34:14.914Z,65.90
2019-02-23T00:36:43.161Z,63.70
2019-02-23T00:39:11.398Z,64.30
2019-02-23T00:41:39.657Z,64.10
2019-02-23T00:44:07.893Z,63.80
2019-02-23T00:46:36.129Z,63.70
2019-02-23T00:49:04.396Z,64.90
2019-02-23T00:51:32.648Z,66.10
2019-02-23T00:54:00.897Z,65.00
2019-02-23T00:56:29.165Z,66.00
2019-02-23T00:58:57.410Z,65.20
2019-02-23T01:01:25.709Z,66.30
2019-02-23T01:03:54.417Z,65.10
2019-02-23T01:06:23.280Z,63.50
2019-02-23T01:08:51.511Z,62.70
2019-02-23T01:11:19.769Z,64.10
2019-02-23T01:13:48.052Z,61.60
2019-02-23T01:16:16.277Z,62.30
2019-02-23T01:18:44.539Z,64.00
2019-02-23T01:21:12.770Z,63.30
2019-02-23T01:23:41.020Z,61.50
2019-02-23T01:26:09.281Z,63.60
2019-02-23T01:28:37.540Z,64.20
2019-02-23T01:31:05.776Z,62.20
2019-02-23T01:33:34.005Z,63.90
2019-02-23T01:36:02.249Z,61.00
2019-02-23T01:38:30.482Z,63.30
2019-02-23T01:40:58.714Z,62.60
2019-02-23T01:43:26.977Z,63.20
2019-02-23T01:45:55.202Z,62.30
2019-02-23T01:48:23.453Z,62.70
2019-02-23T01:50:51.689Z,64.20
2019-02-23T01:53:19.920Z,61.80
2019-02-23T01:55:48.185Z,62.50
2019-02-23T01:58:16.444Z,62.90
2019-02-23T02:00:44.675Z,65.30
2019-02-23T02:03:12.924Z,65.60
2019-02-23T02:05:41.167Z,65.40
2019-02-23T02:08:09.406Z,64.70
2019-02-23T02:10:37.646Z,65.80
2019-02-23T02:13:05.887Z,66.20
2019-02-23T02:15:34.134Z,64.20
2019-02-23T02:18:02.399Z,62.90
2019-02-23T02:20:30.637Z,66.00
2019-02-23T02:22:58.874Z,68.30
2019-02-23T02:25:27.128Z,67.80
2019-02-23T02:27:55.361Z,67.80
2019-02-23T02:30:23.590Z,66.90
2019-02-23T02:32:51.843Z,68.30
2019-02-23T02:35:20.085Z,67.60
2019-02-23T02:37:48.318Z,67.80
2019-02-23T02:40:16.587Z,68.20
2019-02-23T02:42:44.806Z,67.30
2019-02-23T02:45:13.064Z,67.80
2019-02-23T02:47:41.318Z,68.40
2019-02-23T02:50:23.120Z,68.80
2019-02-23T02:52:40.172Z,68.70
2019-02-23T02:55:09.141Z,68.80
2019-02-23T02:57:37.418Z,68.30
2019-02-23T03:00:08.766Z,68.00
2019-02-23T03:02:37.058Z,67.70
2019-02-23T03:05:06.366Z,67.50
2019-02-23T03:07:34.598Z,66.60
2019-02-23T03:10:02.858Z,66.80
2019-02-23T03:12:31.105Z,67.00
2019-02-23T03:14:59.346Z,68.50
2019-02-23T03:17:27.591Z,66.60
2019-02-23T03:19:55.858Z,66.80
2019-02-23T03:22:24.114Z,65.80
2019-02-23T03:24:52.361Z,64.40
2019-02-23T03:27:20.626Z,64.80
2019-02-23T03:29:48.881Z,65.00
2019-02-23T03:32:17.129Z,65.00
2019-02-23T03:34:45.642Z,66.70
2019-02-23T03:37:13.888Z,67.80
2019-02-23T03:39:42.178Z,69.40
2019-02-23T03:42:10.479Z,67.30
2019-02-23T03:44:38.811Z,69.00
2019-02-23T03:47:07.040Z,69.60
2019-02-23T03:49:35.272Z,70.30
2019-02-23T03:52:03.529Z,70.10
2019-02-23T03:54:31.758Z,70.70
2019-02-23T03:57:00.021Z,70.50
2019-02-23T03:59:28.277Z,71.10
2019-02-23T04:01:56.594Z,71.00
2019-02-23T04:04:24.852Z,71.10
2019-02-23T04:06:53.092Z,71.10
2019-02-23T04:09:21.335Z,71.00
2019-02-23T04:11:49.591Z,71.00
2019-02-23T04:14:17.845Z,70.10
2019-02-23T04:16:46.074Z,70.10
2019-02-23T04:19:14.313Z,70.40
2019-02-23T04:21:42.550Z,70.50
2019-02-23T04:24:10.796Z,70.50
2019-02-23T04:26:39.057Z,69.80
2019-02-23T04:29:07.289Z,70.30
2019-02-23T04:31:35.548Z,69.70
2019-02-23T04:34:03.804Z,70.80
2019-02-23T04:36:32.057Z,71.30
2019-02-23T04:39:00.301Z,71.40
2019-02-23T04:41:28.554Z,70.70
2019-02-23T04:43:56.781Z,70.30
2019-02-23T04:46:25.022Z,69.60
2019-02-23T04:48:53.258Z,70.90
2019-02-23T04:51:21.505Z,71.30
2019-02-23T04:53:49.752Z,71.40
2019-02-23T04:56:18.006Z,70.70
2019-02-23T04:58:46.255Z,69.80
2019-02-23T05:01:14.503Z,70.60
2019-02-23T05:03:42.734Z,70.40
2019-02-23T05:06:10.958Z,70.40
2019-02-23T05:08:39.206Z,69.50
2019-02-23T05:11:07.437Z,69.50
2019-02-23T05:13:35.715Z,70.40
2019-02-23T05:16:04.042Z,69.90
2019-02-23T05:18:32.299Z,69.30
2019-02-23T05:21:00.534Z,70.80
2019-02-23T05:23:28.783Z,70.90
2019-02-23T05:25:57.036Z,70.30
2019-02-23T05:28:25.269Z,70.60
2019-02-23T05:30:53.533Z,71.50
2019-02-23T05:33:21.762Z,71.50
2019-02-23T05:35:50.011Z,70.90
2019-02-23T05:38:18.246Z,70.40
2019-02-23T05:40:46.490Z,70.20
2019-02-23T05:43:14.761Z,71.10
2019-02-23T05:45:43.025Z,71.40
2019-02-23T05:48:11.281Z,70.60
2019-02-23T05:50:39.537Z,70.50
2019-02-23T05:53:07.774Z,72.20
2019-02-23T05:55:36.038Z,71.90
2019-02-23T05:58:04.261Z,72.20
2019-02-23T06:00:32.505Z,71.00
2019-02-23T06:03:00.750Z,71.90
2019-02-23T06:05:28.997Z,71.70
2019-02-23T06:07:57.248Z,71.90
2019-02-23T06:10:25.485Z,71.90
2019-02-23T06:12:53.737Z,71.50
2019-02-23T06:15:22.008Z,70.40
2019-02-23T06:17:50.266Z,71.10
2019-02-23T06:20:18.586Z,70.00
2019-02-23T06:22:47.067Z,71.60
2019-02-23T06:25:15.457Z,70.70
2019-02-23T06:27:43.711Z,71.60
2019-02-23T06:30:12.878Z,70.40
2019-02-23T06:32:41.154Z,70.80
2019-02-23T06:35:10.149Z,70.90
2019-02-23T06:37:38.381Z,69.80
2019-02-23T06:40:08.866Z,69.00
2019-02-23T06:42:37.098Z,71.10
2019-02-23T06:45:10.714Z,71.20
2019-02-23T06:47:38.947Z,72.00
2019-02-23T06:50:07.623Z,71.10
2019-02-23T06:52:36.013Z,70.70
2019-02-23T06:55:04.619Z,71.50
2019-02-23T06:57:32.857Z,72.00
2019-02-23T07:00:01.147Z,71.00
2019-02-23T07:02:29.401Z,71.80
2019-02-23T07:04:57.664Z,72.00
2019-02-23T07:07:25.921Z,70.50
2019-02-23T07:09:54.142Z,70.90
2019-02-23T07:12:22.411Z,70.60
2019-02-23T07:14:50.657Z,70.90
2019-02-23T07:17:18.906Z,70.90
2019-02-23T07:19:47.164Z,70.60
2019-02-23T07:22:16.040Z,70.80
2019-02-23T07:24:44.347Z,70.30
2019-02-23T07:27:12.586Z,70.50
2019-02-23T07:29:40.838Z,71.20
2019-02-23T07:32:09.069Z,71.40
2019-02-23T07:34:37.308Z,70.50
2019-02-23T07:37:05.568Z,70.60
2019-02-23T07:39:33.828Z,71.50
2019-02-23T07:42:02.077Z,70.20
2019-02-23T07:44:30.329Z,69.70
2019-02-23T07:46:58.567Z,69.90
2019-02-23T07:49:26.825Z,70.50
2019-02-23T07:51:55.074Z,71.80
2019-02-23T07:54:23.410Z,71.90
2019-02-23T07:56:51.680Z,71.10
2019-02-23T07:59:19.926Z,69.20
2019-02-23T08:01:48.180Z,69.10
2019-02-23T08:04:16.443Z,69.10
2019-02-23T08:06:44.700Z,68.80
2019-02-23T08:09:12.966Z,70.20
2019-02-23T08:11:41.194Z,68.60
2019-02-23T08:14:09.461Z,68.10
2019-02-23T08:16:37.715Z,68.40
2019-02-23T08:19:05.963Z,67.10
2019-02-23T08:21:34.241Z,67.60
2019-02-23T08:24:02.524Z,68.40
2019-02-23T08:26:30.774Z,67.70
2019-02-23T08:28:59.038Z,67.20
2019-02-23T08:31:27.270Z,66.40
2019-02-23T08:33:55.530Z,66.90
2019-02-23T08:36:23.852Z,65.60
2019-02-23T08:38:52.087Z,65.50
2019-02-23T08:41:20.368Z,64.20
2019-02-23T08:43:48.616Z,63.60
2019-02-23T08:46:16.880Z,63.30
2019-02-23T08:48:45.133Z,65.00
2019-02-23T08:51:13.404Z,64.50
2019-02-23T08:53:41.656Z,64.50
2019-02-23T08:56:09.932Z,63.40
2019-02-23T08:58:38.154Z,60.90
2019-02-23T09:01:06.395Z,62.80
2019-02-23T09:03:34.806Z,62.70
2019-02-23T09:06:03.043Z,59.70
2019-02-23T09:08:31.328Z,59.70
2019-02-23T09:10:59.577Z,60.00
2019-02-23T09:13:27.825Z,59.70
2019-02-23T09:15:56.080Z,59.10
2019-02-23T09:18:24.328Z,59.20
2019-02-23T09:20:52.593Z,57.80
2019-02-23T09:23:20.852Z,58.60
2019-02-23T09:25:49.086Z,58.10
2019-02-23T09:28:17.340Z,57.90
2019-02-23T09:30:45.578Z,56.30
2019-02-23T09:33:15.117Z,56.70
2019-02-23T09:35:43.381Z,56.00
2019-02-23T09:38:11.620Z,56.40
2019-02-23T09:40:39.876Z,56.10
2019-02-23T09:43:08.109Z,55.30
2019-02-23T09:45:36.358Z,55.10
2019-02-23T09:48:04.720Z,54.40
2019-02-23T09:50:33.000Z,53.60
2019-02-23T09:53:10.731Z,54.30
2019-02-23T09:55:31.237Z,54.40
2019-02-23T09:57:59.538Z,54.00
2019-02-23T10:00:27.812Z,54.60
2019-02-23T10:02:56.046Z,52.10
2019-02-23T10:05:24.295Z,53.00
2019-02-23T10:07:52.530Z,53.80
2019-02-23T10:10:20.778Z,51.60
2019-02-23T10:12:49.038Z,52.70
2019-02-23T10:15:17.695Z,54.20
2019-02-23T10:17:46.280Z,52.50
2019-02-23T10:20:15.181Z,51.50
2019-02-23T10:22:43.410Z,51.60
2019-02-23T10:25:11.671Z,51.40
2019-02-23T10:27:39.924Z,52.50
2019-02-23T10:30:12.922Z,53.30
2019-02-23T10:32:41.203Z,51.60
2019-02-23T10:35:11.210Z,52.70
2019-02-23T10:37:39.471Z,54.50
2019-02-23T10:40:10.047Z,53.40
2019-02-23T10:42:38.300Z,53.80
2019-02-23T10:45:09.677Z,53.30
2019-02-23T10:47:37.933Z,53.30
2019-02-23T10:50:08.841Z,53.10
2019-02-23T10:52:37.078Z,52.10
2019-02-23T10:55:08.844Z,53.40
2019-02-23T10:57:37.100Z,53.00
2019-02-23T11:00:15.966Z,53.60
2019-02-23T11:02:44.259Z,51.90
2019-02-23T11:05:12.640Z,52.30
2019-02-23T11:07:40.915Z,52.80
2019-02-23T11:10:09.566Z,52.80
2019-02-23T11:12:37.864Z,51.70
2019-02-23T11:15:09.143Z,51.60
2019-02-23T11:17:37.379Z,52.30
2019-02-23T11:20:07.206Z,52.00
2019-02-23T11:22:35.465Z,51.60
2019-02-23T11:25:05.058Z,50.30
2019-02-23T11:27:33.321Z,51.50
2019-02-23T11:30:01.611Z,50.30
2019-02-23T11:32:29.921Z,48.60
2019-02-23T11:34:58.170Z,47.70
2019-02-23T11:37:26.424Z,47.70
2019-02-23T11:39:54.737Z,48.50
2019-02-23T11:42:23.055Z,46.90
2019-02-23T11:44:51.356Z,45.80
2019-02-23T11:47:19.670Z,45.50
2019-02-23T11:49:47.931Z,45.00
2019-02-23T11:52:16.182Z,44.80
2019-02-23T11:54:44.437Z,45.80
2019-02-23T11:57:12.719Z,46.40
2019-02-23T11:59:40.992Z,46.40
2019-02-23T12:02:09.221Z,47.30
2019-02-23T12:04:37.465Z,45.80
2019-02-23T12:07:05.712Z,45.30
2019-02-23T12:09:33.942Z,46.50
2019-02-23T12:12:02.181Z,47.20
2019-02-23T12:14:30.437Z,47.20
2019-02-23T12:16:58.690Z,44.70
2019-02-23T12:19:26.930Z,46.00
2019-02-23T12:21:55.188Z,45.20
2019-02-23T12:24:23.445Z,46.10
2019-02-23T12:26:51.673Z,46.10
2019-02-23T12:29:19.913Z,45.30
2019-02-23T12:31:48.164Z,43.30
2019-02-23T12:34:16.395Z,44.40
2019-02-23T12:36:44.646Z,45.50
2019-02-23T12:39:12.913Z,46.10
2019-02-23T12:41:41.165Z,45.10
2019-02-23T12:44:09.425Z,45.20
2019-02-23T12:46:37.661Z,44.90
2019-02-23T12:49:05.922Z,45.20
2019-02-23T12:51:34.242Z,45.00
2019-02-23T12:54:02.498Z,44.30
2019-02-23T12:56:30.760Z,45.90
2019-02-23T12:58:58.990Z,45.40
2019-02-23T13:01:27.241Z,45.90
2019-02-23T13:03:55.478Z,44.40
2019-02-23T13:06:23.736Z,43.80
2019-02-23T13:09:16.257Z,43.30
2019-02-23T13:11:50.666Z,43.80
2019-02-23T13:15:04.282Z,43.50
2019-02-23T13:18:01.716Z,43.50
2019-02-23T13:20:41.938Z,42.80
2019-02-23T13:23:36.045Z,42.90
2019-02-23T13:26:33.221Z,43.70
2019-02-23T13:29:40.655Z,45.40
2019-02-23T13:32:29.764Z,45.40
2019-02-23T13:35:29.907Z,44.40
2019-02-23T13:38:25.103Z,45.20
2019-02-23T13:41:17.530Z,42.30
2019-02-23T13:43:51.733Z,43.30
2019-02-23T13:46:44.585Z,45.30
2019-02-23T13:49:51.969Z,44.60
2019-02-23T13:52:29.383Z,43.90
2019-02-23T13:55:20.305Z,45.50
2019-02-23T13:57:57.826Z,45.50
2019-02-23T14:00:37.958Z,43.60
2019-02-23T14:03:21.400Z,44.40
2019-02-23T14:06:11.000Z,43.30
2019-02-23T14:09:02.266Z,44.30
2019-02-23T14:11:46.615Z,43.30
2019-02-23T14:14:23.895Z,45.70
2019-02-23T14:17:07.413Z,45.20
2019-02-23T14:20:12.493Z,44.40
2019-02-23T14:23:00.464Z,44.40
2019-02-23T14:25:37.919Z,43.60
2019-02-23T14:28:24.252Z,44.80
2019-02-23T14:30:58.258Z,44.10
2019-02-23T14:33:44.933Z,45.50
2019-02-23T14:36:31.736Z,45.20
2019-02-23T14:39:05.786Z,43.30
2019-02-23T14:42:04.190Z,45.00
2019-02-23T14:44:50.535Z,44.10
2019-02-23T14:47:22.080Z,43.90
2019-02-23T14:50:38.454Z,44.40
2019-02-23T14:53:09.978Z,44.90
2019-02-23T14:55:47.258Z,45.60
2019-02-23T14:58:35.021Z,42.50
2019-02-23T15:01:36.633Z,42.10
2019-02-23T15:04:27.662Z,45.20
2019-02-23T15:06:59.178Z,45.30
2019-02-23T15:09:33.433Z,45.80
2019-02-23T17:47:32.270Z,52.40
2019-02-23T17:50:00.549Z,51.20
2019-02-23T17:52:28.810Z,53.20
2019-02-23T17:54:57.095Z,52.30
2019-02-23T17:57:25.386Z,52.80
2019-02-23T17:59:53.648Z,51.40
2019-02-23T18:02:21.907Z,52.40
2019-02-23T18:04:50.272Z,51.80
2019-02-23T18:07:18.602Z,51.10
2019-02-23T18:09:46.855Z,50.50
2019-02-23T18:12:15.115Z,49.80
2019-02-23T18:14:43.425Z,53.40
2019-02-23T18:17:11.710Z,54.10
2019-02-23T18:19:39.942Z,51.40
2019-02-23T18:22:11.019Z,52.40
2019-02-23T18:24:39.810Z,52.00
2019-02-23T18:27:08.593Z,53.30
2019-02-23T18:29:36.858Z,50.30
2019-02-23T18:32:05.250Z,48.70
2019-02-23T18:34:33.546Z,50.20
2019-02-23T18:37:01.855Z,52.10
2019-02-23T18:39:30.501Z,51.70
2019-02-23T18:41:58.760Z,52.10
2019-02-23T18:44:27.190Z,51.40
2019-02-23T18:46:55.468Z,53.10
2019-02-23T18:49:23.710Z,50.10
2019-02-23T18:51:51.946Z,49.90
2019-02-23T18:54:20.216Z,51.80
2019-02-23T18:56:48.473Z,51.20
2019-02-23T19:13:13.414Z,54.90
2019-02-23T19:15:43.859Z,56.70
2019-02-23T19:18:13.646Z,57.90
2019-02-23T19:20:45.845Z,56.40
2019-02-23T19:23:15.819Z,54.30
2019-02-23T19:25:45.798Z,54.70
2019-02-23T19:28:15.669Z,55.30
2019-02-23T19:30:45.654Z,56.20
2019-02-23T19:33:16.243Z,55.50
2019-02-23T19:35:50.652Z,54.40
2019-02-23T19:38:22.237Z,51.60
2019-02-23T19:40:52.659Z,56.70
2019-02-23T19:43:24.233Z,56.10
2019-02-23T19:45:55.015Z,55.20
2019-02-23T19:48:25.169Z,54.80
2019-02-23T19:50:58.582Z,54.40
2019-02-23T19:53:28.868Z,55.50
2019-02-23T19:55:59.229Z,54.80
2019-02-23T19:58:29.352Z,54.50
2019-02-23T20:00:59.133Z,53.70
2019-02-23T20:03:28.546Z,53.90
2019-02-23T20:05:58.409Z,55.00
2019-02-23T20:08:31.416Z,53.30
2019-02-23T20:11:01.696Z,54.00
2019-02-23T20:13:31.429Z,55.50
2019-02-23T20:16:01.617Z,55.70
2019-02-23T20:18:31.872Z,56.40
2019-02-23T20:21:01.570Z,55.40
2019-02-23T20:23:32.130Z,54.60
2019-02-23T20:26:02.603Z,53.30
2019-02-23T20:28:32.366Z,53.10
2019-02-23T20:31:02.273Z,52.80
2019-02-23T20:33:32.319Z,49.70
2019-02-23T20:36:03.481Z,50.20
2019-02-23T20:38:33.215Z,52.50
2019-02-23T20:41:03.048Z,52.90
2019-02-23T20:43:33.752Z,50.10
2019-02-23T20:46:04.153Z,51.30
2019-02-23T20:48:34.263Z,51.00
2019-02-23T20:51:02.634Z,53.40
2019-02-23T20:53:30.892Z,51.90
2019-02-23T20:55:59.117Z,52.50
2019-02-23T20:58:27.517Z,51.00
2019-02-23T21:00:55.824Z,52.60
2019-02-23T21:03:24.084Z,51.40
2019-02-23T21:05:52.352Z,51.80
2019-02-23T21:08:20.654Z,52.10
2019-02-23T21:10:48.987Z,51.70
2019-02-23T21:13:17.214Z,51.10
2019-02-23T21:15:45.484Z,51.50
2019-02-23T21:18:15.745Z,52.20
2019-02-23T21:20:46.691Z,50.30
2019-02-23T21:23:16.383Z,51.60
2019-02-23T21:25:46.183Z,51.60
2019-02-23T21:28:16.140Z,52.10
2019-02-23T21:30:46.919Z,51.90
2019-02-23T21:33:18.416Z,52.40
2019-02-23T21:35:48.361Z,52.90
2019-02-23T21:38:19.427Z,52.60
2019-02-23T21:40:49.714Z,53.00
2019-02-23T21:43:20.211Z,53.90
2019-02-23T21:45:50.261Z,54.00
2019-02-23T21:48:20.056Z,54.60
2019-02-23T21:50:51.034Z,55.30
2019-02-23T21:53:21.001Z,52.10
2019-02-23T21:55:53.183Z,52.00
2019-02-23T21:58:21.612Z,53.20
2019-02-23T22:00:49.950Z,53.80
2019-02-23T22:03:18.337Z,55.40
2019-02-23T22:05:46.650Z,54.50
2019-02-23T22:08:16.089Z,55.30
2019-02-23T22:10:47.881Z,54.30
2019-02-23T22:13:17.536Z,54.60
2019-02-23T22:15:47.807Z,53.80
2019-02-23T22:18:18.446Z,53.30
2019-02-23T22:20:48.876Z,54.10
2019-02-23T22:23:19.056Z,54.30
2019-02-23T22:25:48.809Z,53.50
2019-02-23T22:28:18.336Z,53.80
2019-02-23T22:30:49.666Z,54.50
2019-02-23T22:33:19.281Z,53.40
2019-02-23T22:35:49.402Z,54.00
2019-02-23T22:38:19.329Z,54.40
2019-02-23T22:40:49.673Z,54.00
2019-02-23T22:43:20.719Z,53.70
2019-02-23T22:45:50.487Z,54.90
2019-02-23T22:48:20.477Z,54.80
2019-02-23T22:50:52.026Z,54.20
2019-02-23T22:53:23.576Z,55.00
2019-02-23T22:55:51.929Z,54.90
2019-02-23T22:58:20.166Z,55.30
2019-02-23T23:00:53.054Z,55.90
2019-02-23T23:03:21.633Z,57.50
2019-02-23T23:05:49.913Z,56.40
2019-02-23T23:08:18.203Z,56.90
2019-02-23T23:10:46.443Z,56.80
2019-02-23T23:13:14.690Z,56.90
2019-02-23T23:15:42.934Z,56.50
2019-02-23T23:18:11.181Z,56.50
2019-02-23T23:20:39.417Z,57.50
2019-02-23T23:23:07.666Z,56.20
2019-02-23T23:25:35.906Z,57.40
2019-02-23T23:28:04.150Z,56.80
2019-02-23T23:30:32.413Z,57.60
2019-02-23T23:33:00.658Z,57.90
2019-02-23T23:35:28.901Z,57.00
2019-02-23T23:37:57.150Z,57.80
2019-02-23T23:40:25.398Z,58.20
2019-02-23T23:42:58.124Z,57.80
2019-02-23T23:45:23.610Z,57.90
2019-02-23T23:47:51.858Z,57.30
2019-02-23T23:50:20.098Z,58.20
2019-02-23T23:52:48.337Z,57.50
2019-02-23T23:55:16.594Z,57.50
2019-02-23T23:57:44.849Z,57.30
